Flight Track Log - Related Links

Times and Time Zones

All times are in EDT time to prevent confusion due to time zone crossing. See the LBQ652 flight status page for this flight to view local times or setup timezone preferences in your user account.

Time Position Orientation Groundspeed Altitude Reporting Facility
EDT Latitude Longitude Course Direction KTS MPH feet Rate Location/Type
Thu 02:40:27 AM 42.5403 -84.1178 259° West 304 350 14,100  Level Chicago Center
Thu 02:40:59 AM 42.5289 -84.1814 256° West 310 357 14,900 1,565 Climbing Cleveland Center
Thu 02:41:59 AM 42.5128 -84.2989 260° West 316 364 16,500 1,471 Climbing Cleveland Center
Thu 02:43:00 AM 42.5864 -83.9984 260° West  Level Estimated
Thu 02:44:00 AM 42.5729 -84.0945 259° West  Level Estimated
Thu 02:44:27 AM 42.4742 -84.5894 260° West 319 367 20,000  Level Chicago Center
Thu 02:45:00 AM 42.5593 -84.1907 259° West  Level Estimated
Thu 02:45:27 AM 42.4586 -84.7083 260° West 321 369 21,000  Level Chicago Center
Thu 02:46:27 AM 42.4414 -84.8322 259° West 329 379 22,200 1,250 Climbing Chicago Center
Thu 02:47:27 AM 42.4244 -84.9525 259° West 328 377 23,500 1,250 Climbing Chicago Center
Thu 02:48:27 AM 42.4072 -85.0725 259° West 327 376 24,700 1,140 Climbing Chicago Center
Thu 02:49:28 AM 42.3900 -85.1917 259° West 324 373 25,800 645 Climbing Chicago Center
Thu 02:50:28 AM 42.3725 -85.3172 259° West 337 388 26,000 100 Climbing Chicago Center
Thu 02:51:28 AM 42.3528 -85.4472 258° West 350 403 26,000  Level Chicago Center
Thu 02:52:28 AM 42.3342 -85.5794 259° West 357 411 26,000  Level Chicago Center
Thu 02:53:28 AM 42.3186 -85.6839 259° West 356 410 26,000  Level Chicago Center
Thu 02:54:28 AM 42.2981 -85.8169 258° West 359 413 26,000  Level Chicago Center
Thu 02:55:28 AM 42.2772 -85.9628 259° West 364 419 26,000  Level Chicago Center
Thu 02:56:28 AM 42.2567 -86.0947 258° West 363 418 26,000  Level Chicago Center
Thu 02:57:28 AM 42.2358 -86.2267 258° West 361 415 26,000  Level Chicago Center
Thu 02:58:28 AM 42.2158 -86.3575 258° West 359 413 26,000  Level Chicago Center
Thu 02:59:29 AM 42.1953 -86.4875 258° West 357 411 26,000  Level Chicago Center
Thu 03:00:29 AM 42.1747 -86.6178 258° West 356 410 26,000  Level Chicago Center
Thu 03:01:29 AM 42.1547 -86.7550 259° West 353 406 26,000  Level Chicago Center
Thu 03:02:29 AM 42.1344 -86.8847 258° West 355 409 26,000  Level Chicago Center
Thu 03:03:30 AM 42.1131 -87.0139 257° West 358 412 26,000  Level Chicago Center
Thu 03:04:30 AM 42.0922 -87.1406 258° West 351 404 26,000  Level Chicago Center
Thu 03:05:30 AM 42.0711 -87.2711 258° West 357 411 26,000 -1,626 Level Chicago Center
Thu 03:06:17 AM 42.0500 -87.3833 256° West 351 404 23,100 -3,813 Descending Chicago TRACON
Thu 03:07:17 AM 42.0333 -87.5167 260° West 348 400 19,200 -3,800 Descending Chicago TRACON
Thu 03:08:17 AM 42.0167 -87.6333 259° West 337 388 15,500 -3,800 Descending Chicago TRACON
Thu 03:09:17 AM 41.9833 -87.7500 249° West 329 379 11,600 -3,700 Descending Chicago TRACON
Thu 03:10:17 AM 41.9667 -87.8667 259° West 318 366 8,100 -2,800 Descending Chicago TRACON
Thu 03:11:17 AM 41.9667 -87.9667 270° West 309 356 6,000 -1,438 Descending Chicago TRACON
Thu 03:12:18 AM 41.9667 -88.0667 270° West 245 282 5,200 -942 Descending Chicago TRACON
Thu 03:13:18 AM 41.9667 -88.1500 270° West 210 242 4,100 -1,238 Descending Chicago TRACON
Thu 03:14:24 AM 41.9667 -88.2167 270° West 147 169 2,600 -1,238 Descending Chicago TRACON
Thu 03:15:24 AM 41.9500 -88.2333 217° Southwest 125 144 1,500 -756 Descending Chicago TRACON
Thu 03:16:31 AM 41.9047 -88.2500 195° South 140 161 1,000 -448 Descending Chicago Center
Thu 03:18:00 AM 41.9071 -88.2480 90° East  Level Estimated

Login

Don't have an account? Register now (free) for customized features, flight alerts, and more!